sensor_id;sensor_type;location;lat;lon;timestamp;P1;durP1;ratioP1;P2;durP2;ratioP2
2854;SDS011;1435;49.472;10.940;2022-10-31T00:01:22;6.10;;;5.50;;
2854;SDS011;1435;49.472;10.940;2022-10-31T00:06:28;8.83;;;7.03;;
2854;SDS011;1435;49.472;10.940;2022-10-31T00:11:30;8.73;;;7.80;;
2854;SDS011;1435;49.472;10.940;2022-10-31T00:16:32;12.33;;;9.47;;
2854;SDS011;1435;49.472;10.940;2022-10-31T00:21:35;14.60;;;8.60;;
2854;SDS011;1435;49.472;10.940;2022-10-31T00:26:37;11.10;;;9.90;;
2854;SDS011;1435;49.472;10.940;2022-10-31T00:31:39;10.87;;;9.80;;
2854;SDS011;1435;49.472;10.940;2022-10-31T00:36:42;10.77;;;8.50;;
2854;SDS011;1435;49.472;10.940;2022-10-31T00:41:43;11.07;;;8.37;;
2854;SDS011;1435;49.472;10.940;2022-10-31T00:46:45;9.10;;;8.17;;
2854;SDS011;1435;49.472;10.940;2022-10-31T00:51:48;8.80;;;7.87;;
2854;SDS011;1435;49.472;10.940;2022-10-31T00:56:50;6.93;;;6.30;;
2854;SDS011;1435;49.472;10.940;2022-10-31T01:01:52;7.33;;;6.10;;
2854;SDS011;1435;49.472;10.940;2022-10-31T01:06:55;5.70;;;5.30;;
2854;SDS011;1435;49.472;10.940;2022-10-31T01:11:57;10.53;;;5.97;;
2854;SDS011;1435;49.472;10.940;2022-10-31T01:16:59;4.57;;;4.17;;
2854;SDS011;1435;49.472;10.940;2022-10-31T01:22:02;6.73;;;4.63;;
2854;SDS011;1435;49.472;10.940;2022-10-31T01:27:04;5.60;;;5.10;;
2854;SDS011;1435;49.472;10.940;2022-10-31T01:32:05;8.23;;;4.77;;
2854;SDS011;1435;49.472;10.940;2022-10-31T01:37:08;5.60;;;5.10;;
2854;SDS011;1435;49.472;10.940;2022-10-31T01:42:11;4.40;;;3.97;;
2854;SDS011;1435;49.472;10.940;2022-10-31T01:47:21;4.97;;;4.57;;
2854;SDS011;1435;49.472;10.940;2022-10-31T01:52:44;5.80;;;5.30;;
2854;SDS011;1435;49.472;10.940;2022-10-31T01:57:50;8.93;;;6.63;;
2854;SDS011;1435;49.472;10.940;2022-10-31T02:02:54;6.33;;;5.73;;
2854;SDS011;1435;49.472;10.940;2022-10-31T02:07:58;5.80;;;5.30;;
2854;SDS011;1435;49.472;10.940;2022-10-31T02:13:06;7.63;;;6.40;;
2854;SDS011;1435;49.472;10.940;2022-10-31T02:18:08;6.77;;;6.17;;
2854;SDS011;1435;49.472;10.940;2022-10-31T02:23:24;6.07;;;5.67;;
2854;SDS011;1435;49.472;10.940;2022-10-31T02:28:49;5.40;;;4.90;;
2854;SDS011;1435;49.472;10.940;2022-10-31T02:34:07;7.23;;;5.73;;
2854;SDS011;1435;49.472;10.940;2022-10-31T02:39:18;7.77;;;7.07;;
2854;SDS011;1435;49.472;10.940;2022-10-31T02:44:27;6.07;;;5.50;;
2854;SDS011;1435;49.472;10.940;2022-10-31T02:49:38;5.53;;;5.03;;
2854;SDS011;1435;49.472;10.940;2022-10-31T02:54:46;8.43;;;5.20;;
2854;SDS011;1435;49.472;10.940;2022-10-31T02:59:49;8.20;;;6.97;;
2854;SDS011;1435;49.472;10.940;2022-10-31T03:04:57;8.93;;;6.43;;
2854;SDS011;1435;49.472;10.940;2022-10-31T03:10:12;6.10;;;5.50;;
2854;SDS011;1435;49.472;10.940;2022-10-31T03:15:19;5.40;;;4.90;;
2854;SDS011;1435;49.472;10.940;2022-10-31T03:20:27;6.80;;;6.10;;
2854;SDS011;1435;49.472;10.940;2022-10-31T03:25:32;5.70;;;5.20;;
2854;SDS011;1435;49.472;10.940;2022-10-31T03:30:36;5.43;;;4.90;;
2854;SDS011;1435;49.472;10.940;2022-10-31T03:35:44;5.70;;;5.17;;
2854;SDS011;1435;49.472;10.940;2022-10-31T03:40:49;4.87;;;4.40;;
2854;SDS011;1435;49.472;10.940;2022-10-31T03:45:55;5.50;;;4.57;;
2854;SDS011;1435;49.472;10.940;2022-10-31T03:51:01;5.53;;;5.13;;
2854;SDS011;1435;49.472;10.940;2022-10-31T03:56:09;6.80;;;6.20;;
2854;SDS011;1435;49.472;10.940;2022-10-31T04:01:18;9.10;;;7.17;;
2854;SDS011;1435;49.472;10.940;2022-10-31T04:06:22;9.10;;;8.20;;
2854;SDS011;1435;49.472;10.940;2022-10-31T04:11:27;8.03;;;7.33;;
2854;SDS011;1435;49.472;10.940;2022-10-31T04:16:32;8.60;;;7.80;;
2854;SDS011;1435;49.472;10.940;2022-10-31T04:21:36;10.47;;;7.77;;
2854;SDS011;1435;49.472;10.940;2022-10-31T04:26:38;7.83;;;6.30;;
2854;SDS011;1435;49.472;10.940;2022-10-31T04:31:39;7.67;;;6.87;;
2854;SDS011;1435;49.472;10.940;2022-10-31T04:36:42;7.57;;;6.83;;
2854;SDS011;1435;49.472;10.940;2022-10-31T04:41:44;10.50;;;7.20;;
2854;SDS011;1435;49.472;10.940;2022-10-31T04:46:46;7.30;;;6.70;;
2854;SDS011;1435;49.472;10.940;2022-10-31T04:51:49;7.40;;;6.70;;
2854;SDS011;1435;49.472;10.940;2022-10-31T04:56:51;7.80;;;7.10;;
2854;SDS011;1435;49.472;10.940;2022-10-31T05:01:52;8.07;;;7.10;;
2854;SDS011;1435;49.472;10.940;2022-10-31T05:06:55;6.30;;;5.80;;
2854;SDS011;1435;49.472;10.940;2022-10-31T05:11:57;7.47;;;6.83;;
2854;SDS011;1435;49.472;10.940;2022-10-31T05:17:00;11.70;;;7.60;;
2854;SDS011;1435;49.472;10.940;2022-10-31T05:22:03;8.10;;;7.30;;
2854;SDS011;1435;49.472;10.940;2022-10-31T05:27:05;10.13;;;7.83;;
2854;SDS011;1435;49.472;10.940;2022-10-31T05:32:07;13.37;;;9.10;;
2854;SDS011;1435;49.472;10.940;2022-10-31T05:37:10;8.57;;;7.60;;
2854;SDS011;1435;49.472;10.940;2022-10-31T05:42:11;9.87;;;7.20;;
2854;SDS011;1435;49.472;10.940;2022-10-31T05:47:13;7.90;;;6.63;;
2854;SDS011;1435;49.472;10.940;2022-10-31T05:52:16;10.77;;;7.60;;
2854;SDS011;1435;49.472;10.940;2022-10-31T05:57:18;8.43;;;6.77;;
2854;SDS011;1435;49.472;10.940;2022-10-31T06:02:20;8.50;;;6.23;;
2854;SDS011;1435;49.472;10.940;2022-10-31T06:07:24;8.07;;;7.27;;
2854;SDS011;1435;49.472;10.940;2022-10-31T06:12:25;7.40;;;6.70;;
2854;SDS011;1435;49.472;10.940;2022-10-31T06:17:27;6.57;;;6.07;;
2854;SDS011;1435;49.472;10.940;2022-10-31T06:22:30;7.20;;;5.60;;
2854;SDS011;1435;49.472;10.940;2022-10-31T06:27:32;8.97;;;6.33;;
2854;SDS011;1435;49.472;10.940;2022-10-31T06:32:34;7.43;;;6.60;;
2854;SDS011;1435;49.472;10.940;2022-10-31T06:37:37;8.20;;;7.40;;
2854;SDS011;1435;49.472;10.940;2022-10-31T06:42:39;9.67;;;8.67;;
2854;SDS011;1435;49.472;10.940;2022-10-31T06:47:40;8.70;;;7.90;;
2854;SDS011;1435;49.472;10.940;2022-10-31T06:52:43;8.10;;;7.37;;
2854;SDS011;1435;49.472;10.940;2022-10-31T06:57:51;7.80;;;7.10;;
2854;SDS011;1435;49.472;10.940;2022-10-31T07:02:54;9.80;;;8.90;;
2854;SDS011;1435;49.472;10.940;2022-10-31T07:07:58;11.43;;;7.80;;
2854;SDS011;1435;49.472;10.940;2022-10-31T07:13:01;10.20;;;8.80;;
2854;SDS011;1435;49.472;10.940;2022-10-31T07:18:05;8.80;;;8.00;;
2854;SDS011;1435;49.472;10.940;2022-10-31T07:23:11;9.37;;;8.47;;
2854;SDS011;1435;49.472;10.940;2022-10-31T07:28:13;14.60;;;9.50;;
2854;SDS011;1435;49.472;10.940;2022-10-31T07:33:15;13.07;;;9.70;;
2854;SDS011;1435;49.472;10.940;2022-10-31T07:38:18;11.87;;;8.80;;
2854;SDS011;1435;49.472;10.940;2022-10-31T07:43:20;10.93;;;9.70;;
2854;SDS011;1435;49.472;10.940;2022-10-31T07:48:22;10.90;;;9.63;;
2854;SDS011;1435;49.472;10.940;2022-10-31T07:53:25;14.93;;;10.90;;
2854;SDS011;1435;49.472;10.940;2022-10-31T07:58:27;12.97;;;9.57;;
2854;SDS011;1435;49.472;10.940;2022-10-31T08:03:29;10.87;;;9.70;;
2854;SDS011;1435;49.472;10.940;2022-10-31T08:08:32;12.00;;;10.80;;
2854;SDS011;1435;49.472;10.940;2022-10-31T08:13:34;13.77;;;10.60;;
2854;SDS011;1435;49.472;10.940;2022-10-31T08:18:35;10.80;;;9.80;;
2854;SDS011;1435;49.472;10.940;2022-10-31T08:23:39;11.40;;;10.10;;
2854;SDS011;1435;49.472;10.940;2022-10-31T08:28:41;11.20;;;10.20;;
2854;SDS011;1435;49.472;10.940;2022-10-31T08:33:42;12.17;;;10.77;;
2854;SDS011;1435;49.472;10.940;2022-10-31T08:38:45;14.33;;;12.03;;
2854;SDS011;1435;49.472;10.940;2022-10-31T08:43:47;18.93;;;12.40;;
2854;SDS011;1435;49.472;10.940;2022-10-31T08:48:49;11.83;;;10.80;;
2854;SDS011;1435;49.472;10.940;2022-10-31T08:53:52;12.67;;;11.37;;
2854;SDS011;1435;49.472;10.940;2022-10-31T08:58:54;14.57;;;12.47;;
2854;SDS011;1435;49.472;10.940;2022-10-31T09:03:56;14.90;;;13.30;;
2854;SDS011;1435;49.472;10.940;2022-10-31T09:08:59;13.80;;;12.47;;
2854;SDS011;1435;49.472;10.940;2022-10-31T09:14:01;16.63;;;14.97;;
2854;SDS011;1435;49.472;10.940;2022-10-31T09:19:02;17.87;;;14.47;;
2854;SDS011;1435;49.472;10.940;2022-10-31T09:24:06;16.27;;;12.77;;
2854;SDS011;1435;49.472;10.940;2022-10-31T09:29:08;16.30;;;14.60;;
2854;SDS011;1435;49.472;10.940;2022-10-31T09:34:10;19.10;;;15.13;;
2854;SDS011;1435;49.472;10.940;2022-10-31T09:39:13;18.00;;;15.57;;
2854;SDS011;1435;49.472;10.940;2022-10-31T09:44:18;18.40;;;14.87;;
2854;SDS011;1435;49.472;10.940;2022-10-31T09:49:35;19.30;;;15.63;;
2854;SDS011;1435;49.472;10.940;2022-10-31T09:54:49;20.63;;;16.30;;
2854;SDS011;1435;49.472;10.940;2022-10-31T09:59:54;22.80;;;17.20;;
2854;SDS011;1435;49.472;10.940;2022-10-31T10:04:57;17.33;;;15.73;;
2854;SDS011;1435;49.472;10.940;2022-10-31T10:10:08;20.50;;;16.30;;
2854;SDS011;1435;49.472;10.940;2022-10-31T10:15:21;17.93;;;15.33;;
2854;SDS011;1435;49.472;10.940;2022-10-31T10:20:41;17.43;;;14.60;;
2854;SDS011;1435;49.472;10.940;2022-10-31T10:25:53;15.93;;;14.43;;
2854;SDS011;1435;49.472;10.940;2022-10-31T10:31:03;16.60;;;14.83;;
2854;SDS011;1435;49.472;10.940;2022-10-31T10:36:10;17.03;;;15.30;;
2854;SDS011;1435;49.472;10.940;2022-10-31T10:41:18;16.50;;;14.90;;
2854;SDS011;1435;49.472;10.940;2022-10-31T10:46:23;20.00;;;15.13;;
2854;SDS011;1435;49.472;10.940;2022-10-31T10:51:52;19.40;;;15.33;;
2854;SDS011;1435;49.472;10.940;2022-10-31T10:57:03;15.80;;;14.23;;
2854;SDS011;1435;49.472;10.940;2022-10-31T11:02:16;18.00;;;15.77;;
2854;SDS011;1435;49.472;10.940;2022-10-31T11:07:19;16.53;;;14.83;;
2854;SDS011;1435;49.472;10.940;2022-10-31T11:12:24;16.17;;;14.63;;
2854;SDS011;1435;49.472;10.940;2022-10-31T11:17:31;15.43;;;13.93;;
2854;SDS011;1435;49.472;10.940;2022-10-31T11:22:34;16.57;;;14.63;;
2854;SDS011;1435;49.472;10.940;2022-10-31T11:27:37;18.63;;;16.00;;
2854;SDS011;1435;49.472;10.940;2022-10-31T11:32:47;17.87;;;15.33;;
2854;SDS011;1435;49.472;10.940;2022-10-31T11:37:53;16.33;;;14.30;;
2854;SDS011;1435;49.472;10.940;2022-10-31T11:43:00;17.70;;;15.80;;
2854;SDS011;1435;49.472;10.940;2022-10-31T11:48:12;16.17;;;14.10;;
2854;SDS011;1435;49.472;10.940;2022-10-31T11:53:17;17.33;;;15.57;;
2854;SDS011;1435;49.472;10.940;2022-10-31T11:58:23;17.63;;;14.37;;
2854;SDS011;1435;49.472;10.940;2022-10-31T12:03:27;15.50;;;14.00;;
2854;SDS011;1435;49.472;10.940;2022-10-31T12:08:36;15.73;;;14.13;;
2854;SDS011;1435;49.472;10.940;2022-10-31T12:13:43;16.73;;;14.97;;
2854;SDS011;1435;49.472;10.940;2022-10-31T12:18:58;17.77;;;15.03;;
2854;SDS011;1435;49.472;10.940;2022-10-31T12:24:07;18.27;;;13.43;;
2854;SDS011;1435;49.472;10.940;2022-10-31T12:29:20;16.17;;;13.83;;
2854;SDS011;1435;49.472;10.940;2022-10-31T12:34:36;16.67;;;14.00;;
2854;SDS011;1435;49.472;10.940;2022-10-31T12:39:51;15.73;;;14.07;;
2854;SDS011;1435;49.472;10.940;2022-10-31T12:45:07;16.70;;;13.60;;
2854;SDS011;1435;49.472;10.940;2022-10-31T12:50:22;13.47;;;12.17;;
2854;SDS011;1435;49.472;10.940;2022-10-31T12:55:37;15.33;;;12.73;;
2854;SDS011;1435;49.472;10.940;2022-10-31T13:00:48;16.83;;;13.70;;
2854;SDS011;1435;49.472;10.940;2022-10-31T13:05:58;14.80;;;13.20;;
2854;SDS011;1435;49.472;10.940;2022-10-31T13:11:07;16.97;;;12.50;;
2854;SDS011;1435;49.472;10.940;2022-10-31T13:16:13;16.60;;;13.00;;
2854;SDS011;1435;49.472;10.940;2022-10-31T13:21:18;15.17;;;13.57;;
2854;SDS011;1435;49.472;10.940;2022-10-31T13:26:26;15.80;;;14.23;;
2854;SDS011;1435;49.472;10.940;2022-10-31T13:31:40;18.97;;;13.43;;
2854;SDS011;1435;49.472;10.940;2022-10-31T13:36:43;16.50;;;13.70;;
2854;SDS011;1435;49.472;10.940;2022-10-31T13:41:51;15.10;;;13.50;;
2854;SDS011;1435;49.472;10.940;2022-10-31T13:46:57;19.50;;;14.50;;
2854;SDS011;1435;49.472;10.940;2022-10-31T13:52:05;15.63;;;14.03;;
2854;SDS011;1435;49.472;10.940;2022-10-31T13:57:16;17.70;;;13.27;;
2854;SDS011;1435;49.472;10.940;2022-10-31T14:02:23;17.30;;;14.27;;
2854;SDS011;1435;49.472;10.940;2022-10-31T14:07:27;14.10;;;12.80;;
2854;SDS011;1435;49.472;10.940;2022-10-31T14:12:31;14.03;;;12.07;;
2854;SDS011;1435;49.472;10.940;2022-10-31T14:17:39;15.00;;;13.10;;
2854;SDS011;1435;49.472;10.940;2022-10-31T14:22:47;13.43;;;12.10;;
2854;SDS011;1435;49.472;10.940;2022-10-31T14:27:49;15.20;;;12.97;;
2854;SDS011;1435;49.472;10.940;2022-10-31T14:32:54;14.03;;;12.27;;
2854;SDS011;1435;49.472;10.940;2022-10-31T14:38:02;14.03;;;12.60;;
2854;SDS011;1435;49.472;10.940;2022-10-31T14:43:31;10.83;;;9.73;;
2854;SDS011;1435;49.472;10.940;2022-10-31T14:49:00;14.17;;;9.87;;
2854;SDS011;1435;49.472;10.940;2022-10-31T14:54:17;12.47;;;9.80;;
2854;SDS011;1435;49.472;10.940;2022-10-31T14:59:26;9.90;;;8.67;;
2854;SDS011;1435;49.472;10.940;2022-10-31T15:04:34;8.70;;;8.00;;
2854;SDS011;1435;49.472;10.940;2022-10-31T15:09:37;8.80;;;7.10;;
2854;SDS011;1435;49.472;10.940;2022-10-31T15:14:40;12.30;;;8.40;;
2854;SDS011;1435;49.472;10.940;2022-10-31T15:19:43;8.83;;;7.93;;
2854;SDS011;1435;49.472;10.940;2022-10-31T15:24:46;8.67;;;7.73;;
2854;SDS011;1435;49.472;10.940;2022-10-31T15:29:56;8.97;;;6.73;;
2854;SDS011;1435;49.472;10.940;2022-10-31T15:34:59;7.63;;;6.73;;
2854;SDS011;1435;49.472;10.940;2022-10-31T15:40:06;8.63;;;7.80;;
2854;SDS011;1435;49.472;10.940;2022-10-31T15:45:18;7.90;;;6.67;;
2854;SDS011;1435;49.472;10.940;2022-10-31T15:50:27;8.10;;;7.37;;
2854;SDS011;1435;49.472;10.940;2022-10-31T15:55:32;8.47;;;7.60;;
2854;SDS011;1435;49.472;10.940;2022-10-31T16:00:38;7.37;;;6.70;;
2854;SDS011;1435;49.472;10.940;2022-10-31T16:05:44;10.23;;;7.90;;
2854;SDS011;1435;49.472;10.940;2022-10-31T16:10:48;10.70;;;7.47;;
2854;SDS011;1435;49.472;10.940;2022-10-31T16:15:50;7.23;;;6.53;;
2854;SDS011;1435;49.472;10.940;2022-10-31T16:20:56;9.50;;;7.17;;
2854;SDS011;1435;49.472;10.940;2022-10-31T16:25:58;13.13;;;7.40;;
2854;SDS011;1435;49.472;10.940;2022-10-31T16:31:00;10.83;;;7.07;;
2854;SDS011;1435;49.472;10.940;2022-10-31T16:36:30;10.70;;;9.03;;
2854;SDS011;1435;49.472;10.940;2022-10-31T16:41:34;8.47;;;7.10;;
2854;SDS011;1435;49.472;10.940;2022-10-31T16:46:39;7.53;;;6.93;;
2854;SDS011;1435;49.472;10.940;2022-10-31T16:51:42;14.33;;;6.50;;
2854;SDS011;1435;49.472;10.940;2022-10-31T16:56:45;10.53;;;5.67;;
2854;SDS011;1435;49.472;10.940;2022-10-31T17:01:47;7.43;;;6.73;;
2854;SDS011;1435;49.472;10.940;2022-10-31T17:06:51;15.03;;;6.90;;
2854;SDS011;1435;49.472;10.940;2022-10-31T17:11:53;6.60;;;5.97;;
2854;SDS011;1435;49.472;10.940;2022-10-31T17:16:55;6.40;;;5.80;;
2854;SDS011;1435;49.472;10.940;2022-10-31T17:21:58;6.37;;;5.77;;
2854;SDS011;1435;49.472;10.940;2022-10-31T17:27:01;6.47;;;5.70;;
2854;SDS011;1435;49.472;10.940;2022-10-31T17:32:03;8.40;;;5.90;;
2854;SDS011;1435;49.472;10.940;2022-10-31T17:37:08;7.93;;;7.03;;
2854;SDS011;1435;49.472;10.940;2022-10-31T17:42:11;6.73;;;6.00;;
2854;SDS011;1435;49.472;10.940;2022-10-31T17:47:13;9.90;;;5.63;;
2854;SDS011;1435;49.472;10.940;2022-10-31T17:52:16;9.27;;;6.20;;
2854;SDS011;1435;49.472;10.940;2022-10-31T17:57:18;9.00;;;6.63;;
2854;SDS011;1435;49.472;10.940;2022-10-31T18:02:19;7.97;;;5.97;;
2854;SDS011;1435;49.472;10.940;2022-10-31T18:07:22;6.93;;;5.17;;
2854;SDS011;1435;49.472;10.940;2022-10-31T18:12:24;7.53;;;6.70;;
2854;SDS011;1435;49.472;10.940;2022-10-31T18:17:26;7.47;;;6.37;;
2854;SDS011;1435;49.472;10.940;2022-10-31T18:22:30;9.70;;;7.40;;
2854;SDS011;1435;49.472;10.940;2022-10-31T18:27:31;8.27;;;7.37;;
2854;SDS011;1435;49.472;10.940;2022-10-31T18:32:33;8.20;;;6.90;;
2854;SDS011;1435;49.472;10.940;2022-10-31T18:37:36;8.50;;;5.90;;
2854;SDS011;1435;49.472;10.940;2022-10-31T18:42:38;7.03;;;5.43;;
2854;SDS011;1435;49.472;10.940;2022-10-31T18:47:40;8.03;;;6.90;;
2854;SDS011;1435;49.472;10.940;2022-10-31T18:52:43;12.60;;;9.80;;
2854;SDS011;1435;49.472;10.940;2022-10-31T18:57:45;8.00;;;7.30;;
2854;SDS011;1435;49.472;10.940;2022-10-31T19:02:47;7.40;;;5.83;;
2854;SDS011;1435;49.472;10.940;2022-10-31T19:07:50;6.60;;;5.50;;
2854;SDS011;1435;49.472;10.940;2022-10-31T19:12:52;5.50;;;5.00;;
2854;SDS011;1435;49.472;10.940;2022-10-31T19:17:54;9.47;;;5.37;;
2854;SDS011;1435;49.472;10.940;2022-10-31T19:22:57;6.37;;;5.70;;
2854;SDS011;1435;49.472;10.940;2022-10-31T19:27:59;10.43;;;9.00;;
2854;SDS011;1435;49.472;10.940;2022-10-31T19:33:00;11.63;;;8.07;;
2854;SDS011;1435;49.472;10.940;2022-10-31T19:38:04;12.63;;;8.00;;
2854;SDS011;1435;49.472;10.940;2022-10-31T19:43:05;10.10;;;8.53;;
2854;SDS011;1435;49.472;10.940;2022-10-31T19:48:07;6.87;;;6.30;;
2854;SDS011;1435;49.472;10.940;2022-10-31T19:53:10;7.73;;;6.93;;
2854;SDS011;1435;49.472;10.940;2022-10-31T19:58:12;5.50;;;5.00;;
2854;SDS011;1435;49.472;10.940;2022-10-31T20:03:14;7.57;;;6.80;;
2854;SDS011;1435;49.472;10.940;2022-10-31T20:08:18;14.97;;;12.93;;
2854;SDS011;1435;49.472;10.940;2022-10-31T20:13:21;16.30;;;14.60;;
2854;SDS011;1435;49.472;10.940;2022-10-31T20:18:23;14.40;;;12.90;;
2854;SDS011;1435;49.472;10.940;2022-10-31T20:23:27;14.40;;;12.97;;
2854;SDS011;1435;49.472;10.940;2022-10-31T20:28:29;16.57;;;12.60;;
2854;SDS011;1435;49.472;10.940;2022-10-31T20:33:31;14.73;;;11.30;;
2854;SDS011;1435;49.472;10.940;2022-10-31T20:38:35;10.97;;;9.50;;
2854;SDS011;1435;49.472;10.940;2022-10-31T20:43:38;10.73;;;9.30;;
2854;SDS011;1435;49.472;10.940;2022-10-31T20:48:39;9.83;;;8.83;;
2854;SDS011;1435;49.472;10.940;2022-10-31T20:53:43;10.50;;;9.50;;
2854;SDS011;1435;49.472;10.940;2022-10-31T20:58:45;10.17;;;9.17;;
2854;SDS011;1435;49.472;10.940;2022-10-31T21:03:48;9.10;;;8.27;;
2854;SDS011;1435;49.472;10.940;2022-10-31T21:08:51;6.20;;;5.63;;
2854;SDS011;1435;49.472;10.940;2022-10-31T21:13:54;6.33;;;5.93;;
2854;SDS011;1435;49.472;10.940;2022-10-31T21:18:56;6.00;;;5.50;;
2854;SDS011;1435;49.472;10.940;2022-10-31T21:24:02;7.80;;;7.10;;
2854;SDS011;1435;49.472;10.940;2022-10-31T21:29:06;6.87;;;6.30;;
2854;SDS011;1435;49.472;10.940;2022-10-31T21:34:09;8.03;;;7.30;;
2854;SDS011;1435;49.472;10.940;2022-10-31T21:39:12;15.40;;;13.00;;
2854;SDS011;1435;49.472;10.940;2022-10-31T21:44:14;16.90;;;12.30;;
2854;SDS011;1435;49.472;10.940;2022-10-31T21:49:16;12.90;;;11.00;;
2854;SDS011;1435;49.472;10.940;2022-10-31T21:54:19;12.77;;;11.37;;
2854;SDS011;1435;49.472;10.940;2022-10-31T21:59:27;17.20;;;14.27;;
2854;SDS011;1435;49.472;10.940;2022-10-31T22:04:29;15.17;;;13.60;;
2854;SDS011;1435;49.472;10.940;2022-10-31T22:09:34;15.17;;;13.57;;
2854;SDS011;1435;49.472;10.940;2022-10-31T22:14:36;14.83;;;12.57;;
2854;SDS011;1435;49.472;10.940;2022-10-31T22:19:38;13.43;;;12.20;;
2854;SDS011;1435;49.472;10.940;2022-10-31T22:24:41;13.70;;;12.20;;
2854;SDS011;1435;49.472;10.940;2022-10-31T22:29:43;17.03;;;15.47;;
2854;SDS011;1435;49.472;10.940;2022-10-31T22:34:44;18.13;;;15.10;;
2854;SDS011;1435;49.472;10.940;2022-10-31T22:39:47;16.67;;;15.00;;
2854;SDS011;1435;49.472;10.940;2022-10-31T22:44:49;21.60;;;15.53;;
2854;SDS011;1435;49.472;10.940;2022-10-31T22:49:51;14.37;;;12.90;;
2854;SDS011;1435;49.472;10.940;2022-10-31T22:54:54;17.13;;;14.47;;
2854;SDS011;1435;49.472;10.940;2022-10-31T22:59:56;16.10;;;13.70;;
2854;SDS011;1435;49.472;10.940;2022-10-31T23:04:57;15.47;;;13.33;;
2854;SDS011;1435;49.472;10.940;2022-10-31T23:10:00;14.10;;;12.63;;
2854;SDS011;1435;49.472;10.940;2022-10-31T23:15:02;15.17;;;11.77;;
2854;SDS011;1435;49.472;10.940;2022-10-31T23:20:05;14.43;;;12.93;;
2854;SDS011;1435;49.472;10.940;2022-10-31T23:25:09;18.60;;;15.10;;
2854;SDS011;1435;49.472;10.940;2022-10-31T23:30:11;15.83;;;13.83;;
2854;SDS011;1435;49.472;10.940;2022-10-31T23:35:13;14.37;;;12.97;;
2854;SDS011;1435;49.472;10.940;2022-10-31T23:40:16;14.67;;;13.27;;
2854;SDS011;1435;49.472;10.940;2022-10-31T23:45:18;13.80;;;12.60;;
2854;SDS011;1435;49.472;10.940;2022-10-31T23:50:20;13.77;;;12.10;;
2854;SDS011;1435;49.472;10.940;2022-10-31T23:55:23;13.80;;;12.50;;
